createdAt,value
2023-02-26T09:37:59.649Z,3.20
2023-02-26T09:40:51.521Z,2.83
2023-02-26T09:44:26.063Z,2.27
2023-02-26T09:47:18.465Z,3.33
2023-02-26T09:50:11.203Z,4.23
2023-02-26T09:53:03.083Z,2.33
2023-02-26T09:55:51.442Z,2.10
2023-02-26T09:58:40.340Z,3.23
2023-02-26T10:01:33.118Z,25.93
2023-02-26T10:04:28.559Z,5.73
2023-02-26T10:07:23.102Z,4.60
2023-02-26T10:10:23.216Z,14.57
2023-02-26T10:13:21.799Z,2.33
2023-02-26T10:16:13.003Z,2.67
2023-02-26T10:19:04.751Z,3.00
2023-02-26T10:21:57.602Z,4.63
2023-02-26T10:24:47.536Z,2.53
2023-02-26T10:27:47.953Z,2.57
2023-02-26T10:30:41.315Z,16.10
2023-02-26T10:33:37.822Z,13.53
2023-02-26T10:36:28.729Z,3.30
2023-02-26T10:39:24.634Z,2.50
2023-02-26T10:42:16.664Z,2.77
2023-02-26T10:45:24.773Z,2.37
2023-02-26T10:48:25.230Z,27.80
2023-02-26T10:51:14.916Z,3.27
2023-02-26T10:54:12.862Z,4.00
2023-02-26T10:56:59.480Z,4.67
2023-02-26T10:59:46.108Z,2.47
2023-02-26T11:02:39.937Z,2.70
2023-02-26T11:05:29.674Z,1.97
2023-02-26T11:08:21.800Z,2.27
2023-02-26T11:11:09.004Z,5.07
2023-02-26T11:13:55.224Z,2.33
2023-02-26T11:16:49.134Z,3.67
2023-02-26T11:19:40.570Z,5.03
2023-02-26T11:22:30.677Z,3.63
2023-02-26T11:25:20.755Z,6.47
2023-02-26T11:28:09.628Z,2.67
2023-02-26T11:30:57.401Z,1.67
2023-02-26T11:33:49.880Z,1.70
2023-02-26T11:36:42.065Z,1.73
2023-02-26T11:39:31.045Z,2.07
2023-02-26T11:42:18.318Z,3.50
2023-02-26T11:45:07.272Z,5.63
2023-02-26T11:48:02.299Z,4.57
2023-02-26T11:51:01.700Z,4.00
2023-02-26T11:53:53.868Z,3.87
2023-02-26T11:56:43.398Z,1.97
2023-02-26T11:59:32.712Z,2.73
2023-02-26T12:02:21.848Z,2.20
2023-02-26T12:05:09.237Z,4.43
2023-02-26T12:07:55.917Z,4.13
2023-02-26T12:10:52.411Z,4.30
2023-02-26T12:13:46.834Z,3.07
2023-02-26T12:16:44.812Z,3.63
2023-02-26T12:19:41.362Z,4.07
2023-02-26T12:22:46.344Z,1.40
2023-02-26T12:25:56.245Z,1.70
2023-02-26T12:28:55.087Z,5.80
2023-02-26T12:32:06.648Z,1.80
2023-02-26T12:35:32.104Z,2.00
2023-02-26T12:38:25.545Z,2.87
2023-02-26T12:41:48.046Z,2.57
2023-02-26T12:45:12.363Z,1.83
2023-02-26T12:48:15.519Z,1.57
2023-02-26T12:51:12.223Z,2.73
2023-02-26T12:54:18.210Z,4.00
2023-02-26T12:57:17.694Z,3.63
2023-02-26T13:00:20.416Z,4.13
2023-02-26T13:03:42.054Z,3.77
2023-02-26T13:07:01.338Z,2.07
2023-02-26T13:10:07.805Z,4.00
2023-02-26T13:13:05.624Z,2.30
2023-02-26T13:16:03.829Z,1.60
2023-02-26T13:18:57.885Z,1.53
2023-02-26T13:21:48.323Z,3.87
2023-02-26T13:24:39.007Z,4.37
2023-02-26T13:27:29.954Z,4.83
2023-02-26T13:30:30.018Z,2.80
2023-02-26T13:33:21.552Z,4.80
2023-02-26T13:36:09.548Z,1.60
2023-02-26T13:39:13.816Z,1.10
2023-02-26T13:42:05.855Z,6.13
2023-02-26T13:45:03.150Z,3.97
2023-02-26T13:48:02.908Z,3.57
2023-02-26T13:51:01.590Z,3.93
2023-02-26T13:53:58.897Z,4.70
2023-02-26T13:56:51.015Z,7.53
2023-02-26T13:59:47.595Z,1.17
2023-02-26T14:02:53.912Z,2.97
2023-02-26T14:06:10.397Z,1.70
2023-02-26T14:08:59.559Z,5.07
2023-02-26T14:11:59.128Z,5.07
2023-02-26T14:15:21.316Z,2.73
2023-02-26T14:18:21.691Z,1.80
2023-02-26T14:21:38.293Z,2.77
2023-02-26T14:24:36.862Z,1.80
2023-02-26T14:27:33.486Z,1.43
2023-02-26T14:30:30.142Z,3.10
2023-02-26T14:33:19.308Z,2.17
2023-02-26T14:36:09.081Z,2.33
2023-02-26T14:39:01.632Z,1.60
2023-02-26T14:41:48.795Z,3.77
2023-02-26T14:44:39.670Z,1.90
2023-02-26T14:47:27.827Z,6.83
2023-02-26T14:50:17.467Z,5.30
2023-02-26T14:53:30.607Z,1.50
2023-02-26T14:56:28.112Z,2.33
2023-02-26T14:59:29.125Z,3.33
2023-02-26T15:02:26.973Z,2.50
2023-02-26T15:05:30.064Z,2.57
2023-02-26T15:08:36.900Z,2.67
2023-02-26T15:11:37.114Z,2.30
2023-02-26T15:14:51.877Z,9.57
2023-02-26T15:17:52.105Z,2.10
2023-02-26T15:20:47.867Z,4.17
2023-02-26T15:23:41.383Z,4.00
2023-02-26T15:26:36.974Z,6.33
2023-02-26T15:29:28.889Z,6.03
2023-02-26T15:32:22.469Z,5.83
2023-02-26T15:35:16.994Z,2.90
2023-02-26T15:38:04.517Z,3.33
2023-02-26T15:40:54.025Z,3.37
2023-02-26T15:43:45.837Z,5.63
2023-02-26T15:46:37.261Z,1.77
2023-02-26T15:49:29.153Z,1.47
2023-02-26T15:52:20.413Z,2.87
2023-02-26T15:55:08.318Z,5.37
2023-02-26T15:57:55.934Z,2.03
2023-02-26T16:00:43.665Z,4.13
2023-02-26T16:03:32.905Z,3.23
2023-02-26T16:06:21.714Z,5.43
2023-02-26T16:09:17.147Z,5.80
2023-02-26T16:12:09.036Z,4.30
2023-02-26T16:14:59.822Z,7.10
2023-02-26T16:17:50.867Z,7.00
2023-02-26T16:20:40.961Z,11.27
2023-02-26T16:23:37.873Z,10.67
2023-02-26T16:26:29.184Z,9.77
2023-02-26T16:29:20.223Z,7.47
2023-02-26T16:32:11.536Z,6.27
2023-02-26T16:35:09.096Z,5.10
2023-02-26T16:37:56.098Z,7.20
2023-02-26T16:40:44.380Z,5.23
2023-02-26T16:43:49.733Z,8.50
2023-02-26T16:46:42.620Z,9.33
2023-02-26T16:49:33.415Z,4.90
2023-02-26T16:52:25.793Z,4.63
2023-02-26T16:55:18.355Z,4.23
2023-02-26T16:58:09.056Z,5.13
2023-02-26T17:01:01.737Z,3.57
2023-02-26T17:03:50.777Z,2.63
2023-02-26T17:06:41.932Z,5.20
2023-02-26T17:09:40.080Z,3.60
2023-02-26T17:12:41.084Z,4.70
2023-02-26T17:15:30.825Z,2.43
2023-02-26T17:18:19.424Z,2.90
2023-02-26T17:21:06.774Z,5.50
2023-02-26T17:23:53.793Z,3.20
2023-02-26T17:26:41.904Z,4.10
2023-02-26T17:29:36.234Z,8.53
2023-02-26T17:32:26.805Z,7.53
2023-02-26T17:35:14.643Z,9.00
2023-02-26T17:38:01.462Z,15.77
2023-02-26T17:40:48.603Z,8.97
2023-02-26T17:43:36.662Z,6.73
2023-02-26T17:46:22.937Z,5.13
2023-02-26T17:49:11.023Z,6.60
2023-02-26T17:51:57.697Z,5.53
2023-02-26T17:54:44.859Z,5.53
2023-02-26T17:57:31.539Z,4.73
2023-02-26T18:00:21.547Z,4.27
2023-02-26T18:03:08.689Z,4.33
2023-02-26T18:05:57.105Z,11.07
2023-02-26T18:08:44.634Z,3.77
2023-02-26T18:11:32.240Z,6.25
2023-02-26T18:14:18.991Z,4.93
2023-02-26T18:17:07.046Z,5.90
2023-02-26T18:19:53.958Z,6.87
2023-02-26T18:22:40.866Z,4.77
2023-02-26T18:25:28.561Z,4.87
2023-02-26T18:28:20.415Z,6.63
2023-02-26T18:31:09.143Z,9.10
2023-02-26T18:33:58.140Z,3.33
2023-02-26T18:36:44.878Z,6.13
2023-02-26T18:39:34.202Z,9.63
2023-02-26T18:42:22.631Z,6.87
2023-02-26T18:45:10.959Z,3.57
2023-02-26T18:47:57.658Z,6.00
2023-02-26T18:50:47.164Z,9.60
2023-02-26T18:53:35.228Z,7.23
2023-02-26T18:56:21.551Z,8.80
2023-02-26T18:59:08.050Z,13.20
2023-02-26T19:01:54.328Z,9.97
2023-02-26T19:04:41.202Z,16.67
2023-02-26T19:07:29.383Z,12.77
2023-02-26T19:10:16.356Z,8.47
2023-02-26T19:13:04.219Z,6.70
2023-02-26T19:15:50.978Z,12.17
2023-02-26T19:18:37.730Z,8.97
2023-02-26T19:21:24.293Z,6.47
2023-02-26T19:24:13.911Z,14.43
2023-02-26T19:27:00.495Z,26.97
2023-02-26T19:29:46.962Z,15.57
2023-02-26T19:32:33.657Z,14.70
2023-02-26T19:35:20.500Z,16.50
2023-02-26T19:38:07.011Z,21.67
2023-02-26T19:40:54.823Z,11.70
2023-02-26T19:43:41.288Z,17.90
2023-02-26T19:46:27.661Z,32.40
2023-02-26T19:49:14.338Z,31.47
2023-02-26T19:52:01.048Z,37.73
2023-02-26T19:54:47.334Z,24.67
2023-02-26T19:57:35.174Z,17.27
2023-02-26T20:00:21.984Z,13.23
2023-02-26T20:03:08.647Z,12.03
2023-02-26T20:05:55.972Z,12.10
2023-02-26T20:08:42.890Z,36.60
2023-02-26T20:11:29.460Z,18.37
2023-02-26T20:14:18.505Z,13.20
2023-02-26T20:17:04.849Z,9.97
2023-02-26T20:19:51.362Z,11.60
2023-02-26T20:22:37.586Z,11.80
2023-02-26T20:25:24.267Z,10.20
2023-02-26T20:28:11.340Z,13.80
2023-02-26T20:30:59.575Z,15.47
2023-02-26T20:33:46.260Z,14.33
2023-02-26T20:36:33.303Z,15.70
2023-02-26T20:39:20.958Z,14.60
2023-02-26T20:42:07.353Z,23.13
2023-02-26T20:44:53.654Z,23.80
2023-02-26T20:47:42.002Z,34.57
2023-02-26T20:50:29.070Z,17.87
2023-02-26T20:53:15.440Z,23.00
2023-02-26T20:56:02.020Z,25.00
2023-02-26T20:58:48.861Z,27.57
2023-02-26T21:01:36.338Z,33.57
2023-02-26T21:04:25.174Z,16.13
2023-02-26T21:07:21.646Z,21.27
2023-02-26T21:10:10.072Z,17.77
2023-02-26T21:12:56.757Z,21.00
2023-02-26T21:15:43.040Z,23.90
2023-02-26T21:18:29.430Z,32.03
2023-02-26T21:21:17.160Z,29.27
2023-02-26T21:24:03.832Z,23.63
2023-02-26T21:26:50.227Z,17.23
2023-02-26T21:29:36.741Z,14.63
2023-02-26T21:32:23.290Z,18.35
2023-02-26T21:35:12.160Z,15.87
2023-02-26T21:38:00.240Z,12.33
2023-02-26T21:40:46.639Z,12.13
2023-02-26T21:43:33.358Z,9.80
2023-02-26T21:46:20.061Z,10.33
2023-02-26T21:49:06.420Z,11.93
2023-02-26T21:51:53.256Z,9.90
2023-02-26T21:54:41.285Z,15.73
2023-02-26T21:57:28.334Z,12.57
2023-02-26T22:00:17.385Z,11.47
2023-02-26T22:03:05.194Z,12.40
2023-02-26T22:05:52.780Z,11.30
2023-02-26T22:08:39.092Z,14.80
2023-02-26T22:11:27.264Z,9.07
2023-02-26T22:14:14.721Z,12.77
2023-02-26T22:17:01.437Z,7.67
2023-02-26T22:19:47.656Z,8.73
2023-02-26T22:22:34.150Z,11.30
2023-02-26T22:25:20.743Z,11.27
2023-02-26T22:28:08.371Z,8.27
2023-02-26T22:30:56.299Z,17.87
2023-02-26T22:33:43.008Z,14.33
2023-02-26T22:36:31.195Z,24.10
2023-02-26T22:39:17.580Z,15.30
2023-02-26T22:42:04.115Z,16.17
2023-02-26T22:44:52.198Z,18.70
2023-02-26T22:47:38.926Z,9.30
2023-02-26T22:50:25.569Z,4.83
2023-02-26T22:53:12.254Z,3.83
2023-02-26T22:55:58.584Z,6.67
2023-02-26T22:58:45.243Z,4.90
2023-02-26T23:01:32.865Z,4.20
2023-02-26T23:04:19.582Z,6.40
2023-02-26T23:07:05.992Z,6.23
2023-02-26T23:09:52.338Z,4.57
2023-02-26T23:12:39.206Z,9.17
2023-02-26T23:15:25.884Z,9.10
2023-02-26T23:18:13.794Z,3.20
2023-02-26T23:21:00.666Z,5.23
2023-02-26T23:23:47.305Z,2.73
2023-02-26T23:26:34.161Z,4.77
2023-02-26T23:29:20.622Z,4.27
2023-02-26T23:32:07.209Z,6.83
2023-02-26T23:34:55.503Z,8.20
2023-02-26T23:37:41.775Z,6.40
2023-02-26T23:40:28.082Z,4.63
2023-02-26T23:43:14.491Z,7.43
2023-02-26T23:46:00.956Z,5.07
2023-02-26T23:48:47.367Z,6.67
2023-02-26T23:51:35.292Z,7.63
2023-02-26T23:54:21.994Z,8.73
2023-02-26T23:57:08.342Z,5.87
2023-02-26T23:59:54.806Z,4.50
